SBOSBO VCE / LIPZ
Speedbird OnlineSpeedbird Online VCE / LIPZ

Venice Marco Polo Airport
21:08 16°C

Location Venice, Italy
Latitude: 45.505299
Longitude: 12.3519
Web Airport Website | Wikipedia
Altitude 2 Meter / 7 Feet
Distance 1,118 KM / 695 Miles
from London.
Time Zone UTC +2 hours (Europe/Rome)
Codes IATA: VCE
ICAO: LIPZ
Currency £1 equals EUR 1.12
Runways
RunwayLength (m)Surface
04L2780Asphalt
04R3300Asphalt
22L3300Asphalt
22R2780Asphalt
Radio
TypeDescriptionFrequency
APPAPP118.9
ATISATIS122.225
GNDGND121.7
TWRTWR120.2
Live ATC
METAR LIPZ 241850Z 06007KT 9999 FEW028 BKN070 16/13 Q1015 NOSIG
TAF TAF LIPZ 241700Z 2418/2524 06010KT 9999 BKN040 TEMPO 2418/2508 16012KT 4000 TSRA BECMG 2506/2508 VRB05KT
Weather As Of 24 Sep 2022 21:08
Description Light rain
Wind 13 km/h from North-East (60°)
Cloud Cover 75%
Precipitation Rain: none, Snow: none
Sunrise 06:59
Sunset 19:05
Lounges Venice Marco Polo Lounge , Main terminal
Rotations During the last 90 days there were
275 flights from LHR
77 flights from LGW
275 flights to LHR
80 flights to LGW


© 2017-2022 Speedbird Online